Anchor Point, Alaska
Current Conditions -  °F | °C
As of 8:53 AM on Sunday 23 Nov 2014 (Local Time) from PAHO Reporting Station
Broken Clouds Broken Clouds  
Wind Chill: 31°   Ceiling: 9000
Heat Index: 35°   Visibility: 10mi
Dew Point: 31°   Wind: 5mph
Humidity: 85%   Direction: 40°NE
Pressure: 29.34"   Gusts: NA
Location:  59.77°N, 151.82°W
Report Text: PAHO 231753Z 04004KT 10SM FEW050 BKN090 BKN110 02/M01 A2934 RMK AO2 SLP937 I6000 T00171006 10033 21006 51013 $
Loading
Personal Weather Stations






























Interactive Weather Map New forecast layout! Learn more

10-Day Weather Forecast

Advertisements
Track Severe Weather on mobile